sensor_id;sensor_type;location;lat;lon;timestamp;temperature;humidity
5164;DHT22;2601;50.224;10.126;2023-05-20T00:00:16;17.30;91.60
5164;DHT22;2601;50.224;10.126;2023-05-20T00:02:41;17.20;91.50
5164;DHT22;2601;50.224;10.126;2023-05-20T00:05:07;17.20;91.60
5164;DHT22;2601;50.224;10.126;2023-05-20T00:07:32;17.20;91.60
5164;DHT22;2601;50.224;10.126;2023-05-20T00:09:58;17.20;91.50
5164;DHT22;2601;50.224;10.126;2023-05-20T00:12:24;17.20;91.60
5164;DHT22;2601;50.224;10.126;2023-05-20T00:14:49;17.20;91.60
5164;DHT22;2601;50.224;10.126;2023-05-20T00:17:15;17.20;91.60
5164;DHT22;2601;50.224;10.126;2023-05-20T00:19:40;17.20;91.60
5164;DHT22;2601;50.224;10.126;2023-05-20T00:22:06;17.20;91.70
5164;DHT22;2601;50.224;10.126;2023-05-20T00:24:32;17.20;91.90
5164;DHT22;2601;50.224;10.126;2023-05-20T00:26:57;17.20;91.70
5164;DHT22;2601;50.224;10.126;2023-05-20T00:29:23;17.20;91.70
5164;DHT22;2601;50.224;10.126;2023-05-20T00:31:48;17.20;91.80
5164;DHT22;2601;50.224;10.126;2023-05-20T00:34:14;17.20;91.70
5164;DHT22;2601;50.224;10.126;2023-05-20T00:36:39;17.20;91.70
5164;DHT22;2601;50.224;10.126;2023-05-20T00:39:05;17.20;91.70
5164;DHT22;2601;50.224;10.126;2023-05-20T00:41:31;17.20;91.70
5164;DHT22;2601;50.224;10.126;2023-05-20T00:43:57;17.20;91.70
5164;DHT22;2601;50.224;10.126;2023-05-20T00:46:23;17.20;91.70
5164;DHT22;2601;50.224;10.126;2023-05-20T00:48:50;17.20;91.70
5164;DHT22;2601;50.224;10.126;2023-05-20T00:51:16;17.20;91.70
5164;DHT22;2601;50.224;10.126;2023-05-20T00:53:42;17.20;91.80
5164;DHT22;2601;50.224;10.126;2023-05-20T00:56:08;17.20;91.80
5164;DHT22;2601;50.224;10.126;2023-05-20T00:58:34;17.20;91.80
5164;DHT22;2601;50.224;10.126;2023-05-20T01:01:04;17.20;91.80
5164;DHT22;2601;50.224;10.126;2023-05-20T01:03:29;17.20;91.90
5164;DHT22;2601;50.224;10.126;2023-05-20T01:05:55;17.20;91.80
5164;DHT22;2601;50.224;10.126;2023-05-20T01:08:22;17.20;91.90
5164;DHT22;2601;50.224;10.126;2023-05-20T01:10:52;17.20;91.90
5164;DHT22;2601;50.224;10.126;2023-05-20T01:13:20;17.20;91.90
5164;DHT22;2601;50.224;10.126;2023-05-20T01:15:49;17.20;91.90
5164;DHT22;2601;50.224;10.126;2023-05-20T01:18:18;17.20;91.90
5164;DHT22;2601;50.224;10.126;2023-05-20T01:20:49;17.20;91.90
5164;DHT22;2601;50.224;10.126;2023-05-20T01:23:15;17.20;91.90
5164;DHT22;2601;50.224;10.126;2023-05-20T01:25:41;17.20;92.00
5164;DHT22;2601;50.224;10.126;2023-05-20T01:28:07;17.20;92.00
5164;DHT22;2601;50.224;10.126;2023-05-20T01:30:38;17.20;92.00
5164;DHT22;2601;50.224;10.126;2023-05-20T01:33:08;17.20;91.90
5164;DHT22;2601;50.224;10.126;2023-05-20T01:35:35;17.20;92.00
5164;DHT22;2601;50.224;10.126;2023-05-20T01:38:02;17.20;91.90
5164;DHT22;2601;50.224;10.126;2023-05-20T01:40:29;17.20;92.00
5164;DHT22;2601;50.224;10.126;2023-05-20T01:42:58;17.20;92.00
5164;DHT22;2601;50.224;10.126;2023-05-20T01:45:24;17.20;92.00
5164;DHT22;2601;50.224;10.126;2023-05-20T01:47:50;17.20;92.10
5164;DHT22;2601;50.224;10.126;2023-05-20T01:50:16;17.20;92.00
5164;DHT22;2601;50.224;10.126;2023-05-20T01:52:41;17.20;92.00
5164;DHT22;2601;50.224;10.126;2023-05-20T01:55:07;17.20;92.00
5164;DHT22;2601;50.224;10.126;2023-05-20T01:57:33;17.20;92.00
5164;DHT22;2601;50.224;10.126;2023-05-20T01:59:58;17.20;92.00
5164;DHT22;2601;50.224;10.126;2023-05-20T02:02:24;17.20;92.00
5164;DHT22;2601;50.224;10.126;2023-05-20T02:04:50;17.20;92.40
5164;DHT22;2601;50.224;10.126;2023-05-20T02:07:17;17.20;92.00
5164;DHT22;2601;50.224;10.126;2023-05-20T02:09:46;17.20;92.00
5164;DHT22;2601;50.224;10.126;2023-05-20T02:12:12;17.20;92.10
5164;DHT22;2601;50.224;10.126;2023-05-20T02:14:45;17.20;92.10
5164;DHT22;2601;50.224;10.126;2023-05-20T02:17:11;17.20;92.10
5164;DHT22;2601;50.224;10.126;2023-05-20T02:19:38;17.20;92.10
5164;DHT22;2601;50.224;10.126;2023-05-20T02:22:05;17.20;92.10
5164;DHT22;2601;50.224;10.126;2023-05-20T02:24:31;17.20;92.10
5164;DHT22;2601;50.224;10.126;2023-05-20T02:26:56;17.20;92.10
5164;DHT22;2601;50.224;10.126;2023-05-20T02:29:23;17.20;92.20
5164;DHT22;2601;50.224;10.126;2023-05-20T02:31:49;17.20;92.10
5164;DHT22;2601;50.224;10.126;2023-05-20T02:34:17;17.20;92.10
5164;DHT22;2601;50.224;10.126;2023-05-20T02:36:43;17.20;92.10
5164;DHT22;2601;50.224;10.126;2023-05-20T02:39:08;17.20;92.40
5164;DHT22;2601;50.224;10.126;2023-05-20T02:41:34;17.20;92.10
5164;DHT22;2601;50.224;10.126;2023-05-20T02:44:00;17.20;92.10
5164;DHT22;2601;50.224;10.126;2023-05-20T02:46:26;17.20;92.10
5164;DHT22;2601;50.224;10.126;2023-05-20T02:48:51;17.20;92.10
5164;DHT22;2601;50.224;10.126;2023-05-20T02:51:17;17.20;92.10
5164;DHT22;2601;50.224;10.126;2023-05-20T02:53:42;17.20;92.10
5164;DHT22;2601;50.224;10.126;2023-05-20T02:56:08;17.20;92.10
5164;DHT22;2601;50.224;10.126;2023-05-20T02:58:34;17.20;92.10
5164;DHT22;2601;50.224;10.126;2023-05-20T03:01:00;17.20;92.10
5164;DHT22;2601;50.224;10.126;2023-05-20T03:03:26;17.20;92.10
5164;DHT22;2601;50.224;10.126;2023-05-20T03:05:52;17.20;92.10
5164;DHT22;2601;50.224;10.126;2023-05-20T03:08:20;17.20;92.10
5164;DHT22;2601;50.224;10.126;2023-05-20T03:10:46;17.20;92.10
5164;DHT22;2601;50.224;10.126;2023-05-20T03:13:12;17.20;92.10
5164;DHT22;2601;50.224;10.126;2023-05-20T03:15:40;17.20;92.10
5164;DHT22;2601;50.224;10.126;2023-05-20T03:18:06;17.20;92.10
5164;DHT22;2601;50.224;10.126;2023-05-20T03:20:35;17.20;92.10
5164;DHT22;2601;50.224;10.126;2023-05-20T03:23:04;17.20;92.10
5164;DHT22;2601;50.224;10.126;2023-05-20T03:25:30;17.20;92.10
5164;DHT22;2601;50.224;10.126;2023-05-20T03:27:56;17.20;92.10
5164;DHT22;2601;50.224;10.126;2023-05-20T03:30:25;17.20;92.40
5164;DHT22;2601;50.224;10.126;2023-05-20T03:32:52;17.20;92.40
5164;DHT22;2601;50.224;10.126;2023-05-20T03:35:17;17.20;92.10
5164;DHT22;2601;50.224;10.126;2023-05-20T03:37:43;17.20;92.10
5164;DHT22;2601;50.224;10.126;2023-05-20T03:40:09;17.20;92.10
5164;DHT22;2601;50.224;10.126;2023-05-20T03:42:35;17.20;92.10
5164;DHT22;2601;50.224;10.126;2023-05-20T03:45:01;17.20;92.10
5164;DHT22;2601;50.224;10.126;2023-05-20T03:47:27;17.20;92.20
5164;DHT22;2601;50.224;10.126;2023-05-20T03:49:53;17.20;92.20
5164;DHT22;2601;50.224;10.126;2023-05-20T03:52:18;17.20;92.20
5164;DHT22;2601;50.224;10.126;2023-05-20T03:54:44;17.20;92.20
5164;DHT22;2601;50.224;10.126;2023-05-20T03:57:09;17.20;92.10
5164;DHT22;2601;50.224;10.126;2023-05-20T03:59:36;17.20;92.20
5164;DHT22;2601;50.224;10.126;2023-05-20T04:02:02;17.20;92.20
5164;DHT22;2601;50.224;10.126;2023-05-20T04:04:28;17.20;92.10
5164;DHT22;2601;50.224;10.126;2023-05-20T04:06:53;17.20;92.20
5164;DHT22;2601;50.224;10.126;2023-05-20T04:09:20;17.20;92.20
5164;DHT22;2601;50.224;10.126;2023-05-20T04:11:46;17.20;92.20
5164;DHT22;2601;50.224;10.126;2023-05-20T04:14:12;17.20;92.20
5164;DHT22;2601;50.224;10.126;2023-05-20T04:16:37;17.20;92.20
5164;DHT22;2601;50.224;10.126;2023-05-20T04:19:03;17.30;92.30
5164;DHT22;2601;50.224;10.126;2023-05-20T04:21:29;17.20;92.20
5164;DHT22;2601;50.224;10.126;2023-05-20T04:23:55;17.20;92.20
5164;DHT22;2601;50.224;10.126;2023-05-20T04:26:21;17.20;92.20
5164;DHT22;2601;50.224;10.126;2023-05-20T04:28:47;17.20;92.20
5164;DHT22;2601;50.224;10.126;2023-05-20T04:31:15;17.20;92.20
5164;DHT22;2601;50.224;10.126;2023-05-20T04:33:41;17.20;92.20
5164;DHT22;2601;50.224;10.126;2023-05-20T04:36:09;17.20;92.20
5164;DHT22;2601;50.224;10.126;2023-05-20T04:38:36;17.20;92.20
5164;DHT22;2601;50.224;10.126;2023-05-20T04:41:02;17.20;92.20
5164;DHT22;2601;50.224;10.126;2023-05-20T04:43:28;17.20;92.30
5164;DHT22;2601;50.224;10.126;2023-05-20T04:45:55;17.20;92.30
5164;DHT22;2601;50.224;10.126;2023-05-20T04:48:21;17.20;92.30
5164;DHT22;2601;50.224;10.126;2023-05-20T04:50:48;17.20;92.30
5164;DHT22;2601;50.224;10.126;2023-05-20T04:53:14;17.20;92.30
5164;DHT22;2601;50.224;10.126;2023-05-20T04:55:40;17.20;92.30
5164;DHT22;2601;50.224;10.126;2023-05-20T04:58:07;17.20;92.30
5164;DHT22;2601;50.224;10.126;2023-05-20T05:00:40;17.20;92.30
5164;DHT22;2601;50.224;10.126;2023-05-20T05:03:05;17.20;92.30
5164;DHT22;2601;50.224;10.126;2023-05-20T05:05:31;17.20;92.60
5164;DHT22;2601;50.224;10.126;2023-05-20T05:07:58;17.20;92.60
5164;DHT22;2601;50.224;10.126;2023-05-20T05:10:24;17.20;92.30
5164;DHT22;2601;50.224;10.126;2023-05-20T05:12:49;17.20;92.30
5164;DHT22;2601;50.224;10.126;2023-05-20T05:15:15;17.20;92.40
5164;DHT22;2601;50.224;10.126;2023-05-20T05:17:40;17.20;92.40
5164;DHT22;2601;50.224;10.126;2023-05-20T05:20:07;17.20;92.30
5164;DHT22;2601;50.224;10.126;2023-05-20T05:22:33;17.20;92.40
5164;DHT22;2601;50.224;10.126;2023-05-20T05:25:02;17.20;92.40
5164;DHT22;2601;50.224;10.126;2023-05-20T05:27:27;17.20;92.40
5164;DHT22;2601;50.224;10.126;2023-05-20T05:29:53;17.20;92.40
5164;DHT22;2601;50.224;10.126;2023-05-20T05:32:20;17.20;92.40
5164;DHT22;2601;50.224;10.126;2023-05-20T05:34:45;17.20;92.40
5164;DHT22;2601;50.224;10.126;2023-05-20T05:37:11;17.20;92.40
5164;DHT22;2601;50.224;10.126;2023-05-20T05:39:36;17.20;92.40
5164;DHT22;2601;50.224;10.126;2023-05-20T05:42:03;17.20;92.40
5164;DHT22;2601;50.224;10.126;2023-05-20T05:44:28;17.20;92.40
5164;DHT22;2601;50.224;10.126;2023-05-20T05:46:54;17.20;92.50
5164;DHT22;2601;50.224;10.126;2023-05-20T05:49:20;17.20;92.50
5164;DHT22;2601;50.224;10.126;2023-05-20T05:51:45;17.20;92.50
5164;DHT22;2601;50.224;10.126;2023-05-20T05:54:11;17.20;92.50
5164;DHT22;2601;50.224;10.126;2023-05-20T05:56:36;17.20;92.50
5164;DHT22;2601;50.224;10.126;2023-05-20T05:59:03;17.20;92.50
5164;DHT22;2601;50.224;10.126;2023-05-20T06:01:29;17.20;92.50
5164;DHT22;2601;50.224;10.126;2023-05-20T06:03:55;17.20;92.50
5164;DHT22;2601;50.224;10.126;2023-05-20T06:06:20;17.20;92.60
5164;DHT22;2601;50.224;10.126;2023-05-20T06:08:46;17.20;92.50
5164;DHT22;2601;50.224;10.126;2023-05-20T06:11:12;17.20;92.60
5164;DHT22;2601;50.224;10.126;2023-05-20T06:13:37;17.20;92.50
5164;DHT22;2601;50.224;10.126;2023-05-20T06:16:03;17.20;92.60
5164;DHT22;2601;50.224;10.126;2023-05-20T06:18:28;17.20;92.60
5164;DHT22;2601;50.224;10.126;2023-05-20T06:20:56;17.20;92.60
5164;DHT22;2601;50.224;10.126;2023-05-20T06:23:21;17.20;92.60
5164;DHT22;2601;50.224;10.126;2023-05-20T06:25:47;17.20;92.80
5164;DHT22;2601;50.224;10.126;2023-05-20T06:28:13;17.20;92.80
5164;DHT22;2601;50.224;10.126;2023-05-20T06:30:40;17.20;92.70
5164;DHT22;2601;50.224;10.126;2023-05-20T06:33:05;17.20;92.90
5164;DHT22;2601;50.224;10.126;2023-05-20T06:35:31;17.20;93.00
5164;DHT22;2601;50.224;10.126;2023-05-20T06:37:59;17.20;93.00
5164;DHT22;2601;50.224;10.126;2023-05-20T06:40:26;17.20;92.90
5164;DHT22;2601;50.224;10.126;2023-05-20T06:42:52;17.20;93.10
5164;DHT22;2601;50.224;10.126;2023-05-20T06:45:18;17.20;92.80
5164;DHT22;2601;50.224;10.126;2023-05-20T06:47:44;17.20;92.80
5164;DHT22;2601;50.224;10.126;2023-05-20T06:50:10;17.20;92.80
5164;DHT22;2601;50.224;10.126;2023-05-20T06:52:36;17.20;92.80
5164;DHT22;2601;50.224;10.126;2023-05-20T06:55:03;17.20;92.80
5164;DHT22;2601;50.224;10.126;2023-05-20T06:57:29;17.20;92.80
5164;DHT22;2601;50.224;10.126;2023-05-20T06:59:55;17.20;92.80
5164;DHT22;2601;50.224;10.126;2023-05-20T07:02:21;17.20;92.80
5164;DHT22;2601;50.224;10.126;2023-05-20T07:04:47;17.20;92.80
5164;DHT22;2601;50.224;10.126;2023-05-20T07:07:13;17.20;92.70
5164;DHT22;2601;50.224;10.126;2023-05-20T07:09:38;17.20;92.80
5164;DHT22;2601;50.224;10.126;2023-05-20T07:12:04;17.20;92.80
5164;DHT22;2601;50.224;10.126;2023-05-20T07:14:30;17.20;92.70
5164;DHT22;2601;50.224;10.126;2023-05-20T07:16:55;17.20;92.70
5164;DHT22;2601;50.224;10.126;2023-05-20T07:19:21;17.20;92.80
5164;DHT22;2601;50.224;10.126;2023-05-20T07:21:46;17.20;92.80
5164;DHT22;2601;50.224;10.126;2023-05-20T07:24:14;17.20;92.80
5164;DHT22;2601;50.224;10.126;2023-05-20T07:26:39;17.20;92.80
5164;DHT22;2601;50.224;10.126;2023-05-20T07:29:05;17.20;92.80
5164;DHT22;2601;50.224;10.126;2023-05-20T07:31:31;17.20;92.80
5164;DHT22;2601;50.224;10.126;2023-05-20T07:33:57;17.20;92.80
5164;DHT22;2601;50.224;10.126;2023-05-20T07:36:22;17.20;92.80
5164;DHT22;2601;50.224;10.126;2023-05-20T07:38:48;17.20;92.80
5164;DHT22;2601;50.224;10.126;2023-05-20T07:41:14;17.20;92.80
5164;DHT22;2601;50.224;10.126;2023-05-20T07:43:39;17.20;92.80
5164;DHT22;2601;50.224;10.126;2023-05-20T07:46:05;17.20;92.80
5164;DHT22;2601;50.224;10.126;2023-05-20T07:48:30;17.20;92.80
5164;DHT22;2601;50.224;10.126;2023-05-20T07:50:56;17.20;92.90
5164;DHT22;2601;50.224;10.126;2023-05-20T07:53:24;17.20;92.90
5164;DHT22;2601;50.224;10.126;2023-05-20T07:55:49;17.20;92.80
5164;DHT22;2601;50.224;10.126;2023-05-20T07:58:15;17.20;92.90
5164;DHT22;2601;50.224;10.126;2023-05-20T08:00:41;17.20;92.90
5164;DHT22;2601;50.224;10.126;2023-05-20T08:03:06;17.20;92.90
5164;DHT22;2601;50.224;10.126;2023-05-20T08:05:40;17.20;92.90
5164;DHT22;2601;50.224;10.126;2023-05-20T08:08:05;17.20;92.90
5164;DHT22;2601;50.224;10.126;2023-05-20T08:10:31;17.20;92.90
5164;DHT22;2601;50.224;10.126;2023-05-20T08:12:56;17.30;92.90
5164;DHT22;2601;50.224;10.126;2023-05-20T08:15:22;17.20;92.90
5164;DHT22;2601;50.224;10.126;2023-05-20T08:17:48;17.30;93.00
5164;DHT22;2601;50.224;10.126;2023-05-20T08:20:13;17.20;93.00
5164;DHT22;2601;50.224;10.126;2023-05-20T08:22:39;17.30;93.00
5164;DHT22;2601;50.224;10.126;2023-05-20T08:25:08;17.30;93.00
5164;DHT22;2601;50.224;10.126;2023-05-20T08:27:35;17.20;92.90
5164;DHT22;2601;50.224;10.126;2023-05-20T08:30:02;17.30;93.00
5164;DHT22;2601;50.224;10.126;2023-05-20T08:32:28;17.30;93.00
5164;DHT22;2601;50.224;10.126;2023-05-20T08:34:54;17.30;93.00
5164;DHT22;2601;50.224;10.126;2023-05-20T08:37:20;17.30;92.90
5164;DHT22;2601;50.224;10.126;2023-05-20T08:39:46;17.30;92.90
5164;DHT22;2601;50.224;10.126;2023-05-20T08:42:13;17.30;92.90
5164;DHT22;2601;50.224;10.126;2023-05-20T08:44:40;17.30;92.90
5164;DHT22;2601;50.224;10.126;2023-05-20T08:47:07;17.30;92.90
5164;DHT22;2601;50.224;10.126;2023-05-20T08:49:33;17.30;93.00
5164;DHT22;2601;50.224;10.126;2023-05-20T08:52:00;17.30;93.00
5164;DHT22;2601;50.224;10.126;2023-05-20T08:54:32;17.30;93.00
5164;DHT22;2601;50.224;10.126;2023-05-20T08:57:03;17.30;93.00
5164;DHT22;2601;50.224;10.126;2023-05-20T08:59:29;17.30;92.90
5164;DHT22;2601;50.224;10.126;2023-05-20T09:01:55;17.30;92.90
5164;DHT22;2601;50.224;10.126;2023-05-20T09:04:23;17.30;92.90
5164;DHT22;2601;50.224;10.126;2023-05-20T09:06:50;17.30;92.90
5164;DHT22;2601;50.224;10.126;2023-05-20T09:09:15;17.30;92.90
5164;DHT22;2601;50.224;10.126;2023-05-20T09:11:41;17.30;92.90
5164;DHT22;2601;50.224;10.126;2023-05-20T09:14:07;17.30;92.90
5164;DHT22;2601;50.224;10.126;2023-05-20T09:16:33;17.30;92.90
5164;DHT22;2601;50.224;10.126;2023-05-20T09:18:59;17.30;92.90
5164;DHT22;2601;50.224;10.126;2023-05-20T09:21:28;17.30;92.90
5164;DHT22;2601;50.224;10.126;2023-05-20T09:23:55;17.30;92.90
5164;DHT22;2601;50.224;10.126;2023-05-20T09:26:26;17.30;92.90
5164;DHT22;2601;50.224;10.126;2023-05-20T09:28:52;17.30;92.90
5164;DHT22;2601;50.224;10.126;2023-05-20T09:31:18;17.30;92.90
5164;DHT22;2601;50.224;10.126;2023-05-20T09:33:43;17.30;92.90
5164;DHT22;2601;50.224;10.126;2023-05-20T09:36:09;17.30;92.90
5164;DHT22;2601;50.224;10.126;2023-05-20T09:38:37;17.30;92.90
5164;DHT22;2601;50.224;10.126;2023-05-20T09:41:11;17.30;92.90
5164;DHT22;2601;50.224;10.126;2023-05-20T09:43:38;17.30;92.90
5164;DHT22;2601;50.224;10.126;2023-05-20T09:46:04;17.30;92.90
5164;DHT22;2601;50.224;10.126;2023-05-20T09:48:30;17.30;92.90
5164;DHT22;2601;50.224;10.126;2023-05-20T09:50:56;17.30;92.90
5164;DHT22;2601;50.224;10.126;2023-05-20T09:53:26;17.30;92.90
5164;DHT22;2601;50.224;10.126;2023-05-20T09:55:53;17.30;92.90
5164;DHT22;2601;50.224;10.126;2023-05-20T09:58:19;17.30;92.90
5164;DHT22;2601;50.224;10.126;2023-05-20T10:00:45;17.30;92.90
5164;DHT22;2601;50.224;10.126;2023-05-20T10:03:11;17.30;92.90
5164;DHT22;2601;50.224;10.126;2023-05-20T10:05:42;17.30;93.00
5164;DHT22;2601;50.224;10.126;2023-05-20T10:11:06;17.30;93.00
5164;DHT22;2601;50.224;10.126;2023-05-20T10:14:05;17.30;93.00
5164;DHT22;2601;50.224;10.126;2023-05-20T10:19:29;17.30;93.00
5164;DHT22;2601;50.224;10.126;2023-05-20T10:22:07;17.30;93.00
5164;DHT22;2601;50.224;10.126;2023-05-20T10:24:35;17.30;93.00
5164;DHT22;2601;50.224;10.126;2023-05-20T10:27:03;17.30;93.00
5164;DHT22;2601;50.224;10.126;2023-05-20T10:29:40;17.30;93.00
5164;DHT22;2601;50.224;10.126;2023-05-20T10:32:07;17.30;93.00
5164;DHT22;2601;50.224;10.126;2023-05-20T10:34:46;17.30;93.00
5164;DHT22;2601;50.224;10.126;2023-05-20T10:37:43;17.30;93.00
5164;DHT22;2601;50.224;10.126;2023-05-20T10:40:11;17.30;93.00
5164;DHT22;2601;50.224;10.126;2023-05-20T10:42:37;17.30;93.00
5164;DHT22;2601;50.224;10.126;2023-05-20T10:45:03;17.30;93.00
5164;DHT22;2601;50.224;10.126;2023-05-20T10:47:30;17.30;93.00
5164;DHT22;2601;50.224;10.126;2023-05-20T10:49:56;17.30;93.00
5164;DHT22;2601;50.224;10.126;2023-05-20T10:52:23;17.30;93.00
5164;DHT22;2601;50.224;10.126;2023-05-20T10:54:56;17.30;93.10
5164;DHT22;2601;50.224;10.126;2023-05-20T10:57:24;17.30;93.10
5164;DHT22;2601;50.224;10.126;2023-05-20T10:59:50;17.30;93.10
5164;DHT22;2601;50.224;10.126;2023-05-20T11:02:16;17.30;93.20
5164;DHT22;2601;50.224;10.126;2023-05-20T11:04:43;17.30;93.10
5164;DHT22;2601;50.224;10.126;2023-05-20T11:07:09;17.30;93.10
5164;DHT22;2601;50.224;10.126;2023-05-20T11:09:34;17.30;93.10
5164;DHT22;2601;50.224;10.126;2023-05-20T11:12:00;17.30;93.10
5164;DHT22;2601;50.224;10.126;2023-05-20T11:14:29;17.30;93.10
5164;DHT22;2601;50.224;10.126;2023-05-20T11:16:56;17.30;93.20
5164;DHT22;2601;50.224;10.126;2023-05-20T11:19:22;17.30;93.10
5164;DHT22;2601;50.224;10.126;2023-05-20T11:21:48;17.30;93.20
5164;DHT22;2601;50.224;10.126;2023-05-20T11:24:22;17.30;93.20
5164;DHT22;2601;50.224;10.126;2023-05-20T11:26:48;17.30;93.20
5164;DHT22;2601;50.224;10.126;2023-05-20T11:29:15;17.30;93.20
5164;DHT22;2601;50.224;10.126;2023-05-20T11:31:42;17.30;93.50
5164;DHT22;2601;50.224;10.126;2023-05-20T11:34:07;17.30;93.20
5164;DHT22;2601;50.224;10.126;2023-05-20T11:36:33;17.40;93.30
5164;DHT22;2601;50.224;10.126;2023-05-20T11:38:59;17.30;93.30
5164;DHT22;2601;50.224;10.126;2023-05-20T11:41:25;17.40;93.40
5164;DHT22;2601;50.224;10.126;2023-05-20T11:43:58;17.40;93.30
5164;DHT22;2601;50.224;10.126;2023-05-20T11:46:24;17.40;93.30
5164;DHT22;2601;50.224;10.126;2023-05-20T11:48:53;17.40;93.30
5164;DHT22;2601;50.224;10.126;2023-05-20T11:51:28;17.40;93.40
5164;DHT22;2601;50.224;10.126;2023-05-20T11:54:01;17.40;93.40
5164;DHT22;2601;50.224;10.126;2023-05-20T11:56:34;17.40;93.40
5164;DHT22;2601;50.224;10.126;2023-05-20T11:59:04;17.40;93.40
5164;DHT22;2601;50.224;10.126;2023-05-20T12:01:31;17.40;93.30
5164;DHT22;2601;50.224;10.126;2023-05-20T12:04:08;17.40;93.40
5164;DHT22;2601;50.224;10.126;2023-05-20T12:06:34;17.40;93.40
5164;DHT22;2601;50.224;10.126;2023-05-20T12:09:05;17.40;93.50
5164;DHT22;2601;50.224;10.126;2023-05-20T12:11:33;17.40;93.50
5164;DHT22;2601;50.224;10.126;2023-05-20T12:14:00;17.40;93.50
5164;DHT22;2601;50.224;10.126;2023-05-20T12:16:26;17.40;93.50
5164;DHT22;2601;50.224;10.126;2023-05-20T12:18:52;17.40;93.50
5164;DHT22;2601;50.224;10.126;2023-05-20T12:21:17;17.40;93.50
5164;DHT22;2601;50.224;10.126;2023-05-20T12:23:43;17.40;93.50
5164;DHT22;2601;50.224;10.126;2023-05-20T12:26:09;17.40;93.50
5164;DHT22;2601;50.224;10.126;2023-05-20T12:28:34;17.40;93.50
5164;DHT22;2601;50.224;10.126;2023-05-20T12:31:00;17.40;93.50
5164;DHT22;2601;50.224;10.126;2023-05-20T12:33:26;17.40;93.50
5164;DHT22;2601;50.224;10.126;2023-05-20T12:35:52;17.40;93.60
5164;DHT22;2601;50.224;10.126;2023-05-20T12:38:17;17.40;93.60
5164;DHT22;2601;50.224;10.126;2023-05-20T12:40:43;17.40;93.60
5164;DHT22;2601;50.224;10.126;2023-05-20T12:43:08;17.40;93.60
5164;DHT22;2601;50.224;10.126;2023-05-20T12:45:34;17.40;93.60
5164;DHT22;2601;50.224;10.126;2023-05-20T12:48:00;17.40;93.60
5164;DHT22;2601;50.224;10.126;2023-05-20T12:50:26;17.40;93.60
5164;DHT22;2601;50.224;10.126;2023-05-20T12:52:51;17.40;93.60
5164;DHT22;2601;50.224;10.126;2023-05-20T12:55:17;17.40;93.60
5164;DHT22;2601;50.224;10.126;2023-05-20T12:57:43;17.40;93.60
5164;DHT22;2601;50.224;10.126;2023-05-20T13:00:10;17.40;93.70
5164;DHT22;2601;50.224;10.126;2023-05-20T13:02:37;17.40;93.70
5164;DHT22;2601;50.224;10.126;2023-05-20T13:05:04;17.40;93.60
5164;DHT22;2601;50.224;10.126;2023-05-20T13:07:30;17.40;93.60
5164;DHT22;2601;50.224;10.126;2023-05-20T13:09:57;17.40;93.70
5164;DHT22;2601;50.224;10.126;2023-05-20T13:12:23;17.40;93.70
5164;DHT22;2601;50.224;10.126;2023-05-20T13:14:48;17.40;93.70
5164;DHT22;2601;50.224;10.126;2023-05-20T13:17:14;17.40;93.70
5164;DHT22;2601;50.224;10.126;2023-05-20T13:19:40;17.40;93.70
5164;DHT22;2601;50.224;10.126;2023-05-20T13:22:05;17.40;93.70
5164;DHT22;2601;50.224;10.126;2023-05-20T13:24:32;17.40;93.70
5164;DHT22;2601;50.224;10.126;2023-05-20T13:26:58;17.40;93.70
5164;DHT22;2601;50.224;10.126;2023-05-20T13:29:28;17.40;93.70
5164;DHT22;2601;50.224;10.126;2023-05-20T13:31:53;17.40;93.70
5164;DHT22;2601;50.224;10.126;2023-05-20T13:34:19;17.40;93.70
5164;DHT22;2601;50.224;10.126;2023-05-20T13:36:45;17.40;93.70
5164;DHT22;2601;50.224;10.126;2023-05-20T13:39:13;17.40;93.70
5164;DHT22;2601;50.224;10.126;2023-05-20T13:41:39;17.40;93.80
5164;DHT22;2601;50.224;10.126;2023-05-20T13:44:04;17.40;93.70
5164;DHT22;2601;50.224;10.126;2023-05-20T13:46:30;17.40;93.70
5164;DHT22;2601;50.224;10.126;2023-05-20T13:48:55;17.40;93.70
5164;DHT22;2601;50.224;10.126;2023-05-20T13:51:21;17.40;93.70
5164;DHT22;2601;50.224;10.126;2023-05-20T13:53:47;17.40;93.70
5164;DHT22;2601;50.224;10.126;2023-05-20T13:56:12;17.40;93.80
5164;DHT22;2601;50.224;10.126;2023-05-20T13:58:38;17.40;93.70
5164;DHT22;2601;50.224;10.126;2023-05-20T14:01:04;17.40;93.80
5164;DHT22;2601;50.224;10.126;2023-05-20T14:03:30;17.40;93.80
5164;DHT22;2601;50.224;10.126;2023-05-20T14:05:57;17.40;93.70
5164;DHT22;2601;50.224;10.126;2023-05-20T14:08:23;17.40;93.80
5164;DHT22;2601;50.224;10.126;2023-05-20T14:10:49;17.40;93.70
5164;DHT22;2601;50.224;10.126;2023-05-20T14:13:21;17.40;93.70
5164;DHT22;2601;50.224;10.126;2023-05-20T14:15:47;17.40;93.80
5164;DHT22;2601;50.224;10.126;2023-05-20T14:18:15;17.40;93.80
5164;DHT22;2601;50.224;10.126;2023-05-20T14:20:41;17.40;93.80
5164;DHT22;2601;50.224;10.126;2023-05-20T14:23:06;17.40;93.80
5164;DHT22;2601;50.224;10.126;2023-05-20T14:25:32;17.50;93.90
5164;DHT22;2601;50.224;10.126;2023-05-20T14:27:57;17.40;93.80
5164;DHT22;2601;50.224;10.126;2023-05-20T14:30:23;17.50;93.90
5164;DHT22;2601;50.224;10.126;2023-05-20T14:32:49;17.40;93.90
5164;DHT22;2601;50.224;10.126;2023-05-20T14:35:15;17.40;93.80
5164;DHT22;2601;50.224;10.126;2023-05-20T14:37:42;17.40;93.80
5164;DHT22;2601;50.224;10.126;2023-05-20T14:40:08;17.40;93.90
5164;DHT22;2601;50.224;10.126;2023-05-20T14:42:35;17.40;93.90
5164;DHT22;2601;50.224;10.126;2023-05-20T14:45:00;17.40;93.90
5164;DHT22;2601;50.224;10.126;2023-05-20T14:47:26;17.40;93.90
5164;DHT22;2601;50.224;10.126;2023-05-20T14:49:52;17.40;93.90
5164;DHT22;2601;50.224;10.126;2023-05-20T14:52:17;17.40;93.90
5164;DHT22;2601;50.224;10.126;2023-05-20T14:54:43;17.40;93.90
5164;DHT22;2601;50.224;10.126;2023-05-20T14:57:09;17.40;93.90
5164;DHT22;2601;50.224;10.126;2023-05-20T14:59:35;17.40;93.90
5164;DHT22;2601;50.224;10.126;2023-05-20T15:02:01;17.40;93.90
5164;DHT22;2601;50.224;10.126;2023-05-20T15:04:27;17.50;94.00
5164;DHT22;2601;50.224;10.126;2023-05-20T15:06:52;17.40;93.90
5164;DHT22;2601;50.224;10.126;2023-05-20T15:09:18;17.40;94.00
5164;DHT22;2601;50.224;10.126;2023-05-20T15:11:44;17.50;94.00
5164;DHT22;2601;50.224;10.126;2023-05-20T15:14:09;17.40;93.90
5164;DHT22;2601;50.224;10.126;2023-05-20T15:16:35;17.40;94.00
5164;DHT22;2601;50.224;10.126;2023-05-20T15:19:01;17.40;94.10
5164;DHT22;2601;50.224;10.126;2023-05-20T15:21:26;17.40;94.00
5164;DHT22;2601;50.224;10.126;2023-05-20T15:23:52;17.40;94.00
5164;DHT22;2601;50.224;10.126;2023-05-20T15:26:18;17.50;94.10
5164;DHT22;2601;50.224;10.126;2023-05-20T15:28:43;17.40;94.00
5164;DHT22;2601;50.224;10.126;2023-05-20T15:31:09;17.40;94.00
5164;DHT22;2601;50.224;10.126;2023-05-20T15:33:35;17.50;94.00
5164;DHT22;2601;50.224;10.126;2023-05-20T15:36:00;17.40;94.00
5164;DHT22;2601;50.224;10.126;2023-05-20T15:38:26;17.50;94.00
5164;DHT22;2601;50.224;10.126;2023-05-20T15:40:51;17.40;94.00
5164;DHT22;2601;50.224;10.126;2023-05-20T15:43:17;17.40;94.00
5164;DHT22;2601;50.224;10.126;2023-05-20T15:45:44;17.40;94.00